Time;durP1;ratioP1;P1;durP2;ratioP2;P2;SDS_P1;SDS_P2;PMS_P1;PMS_P2;Temp;Humidity;BMP_temperature;BMP_pressure;BME280_temperature;BME280_humidity;BME280_pressure;Samples;Min_cycle;Max_cycle;Signal;HPM_P1;HPM_P2
2022/01/08 00:02:16;;;;;;;4.10;3.25;;;;;;;;;;12635314;28;20035;-72
2022/01/08 00:08:18;;;;;;;5.00;4.35;;;;;;;;;;12634276;28;20044;-73
2022/01/08 00:14:22;;;;;;;5.00;4.47;;;;;;;;;;12599943;28;20040;-74
2022/01/08 00:20:24;;;;;;;8.48;6.60;;;;;;;;;;12628578;28;20371;-74
2022/01/08 00:26:26;;;;;;;6.67;5.40;;;;;;;;;;12565916;28;20036;-73
2022/01/08 00:32:27;;;;;;;3.97;3.58;;;;;;;;;;12565580;28;20040;-72
2022/01/08 00:38:29;;;;;;;7.03;5.90;;;;;;;;;;12582191;28;20025;-72
2022/01/08 00:44:31;;;;;;;4.63;4.13;;;;;;;;;;12581823;28;20465;-74
2022/01/08 00:50:32;;;;;;;5.43;4.88;;;;;;;;;;12564960;28;20051;-74
2022/01/08 00:56:34;;;;;;;3.70;3.40;;;;;;;;;;12581560;28;20036;-73
2022/01/08 01:02:36;;;;;;;6.10;4.88;;;;;;;;;;12599173;28;20355;-73
2022/01/08 01:08:38;;;;;;;5.80;5.20;;;;;;;;;;12580731;28;20056;-73
2022/01/08 01:14:40;;;;;;;4.67;4.27;;;;;;;;;;12564679;28;20036;-73
2022/01/08 01:20:42;;;;;;;4.97;4.47;;;;;;;;;;12597849;28;20037;-72
2022/01/08 01:27:17;;;;;;;5.43;4.28;;;;;;;;;;12580254;28;20035;-73
2022/01/08 01:52:07;;;;;;;7.57;5.75;;;;;;;;;;12578643;28;20401;-72
2022/01/08 01:58:12;;;;;;;6.82;5.60;;;;;;;;;;12596182;28;20029;-73
2022/01/08 02:04:14;;;;;;;3.78;3.47;;;;;;;;;;12595785;28;20040;-73
2022/01/08 02:10:15;;;;;;;7.97;7.10;;;;;;;;;;12577588;28;20489;-73
2022/01/08 02:16:17;;;;;;;8.90;6.93;;;;;;;;;;12595672;28;20636;-73
2022/01/08 02:26:32;;;;;;;9.35;7.30;;;;;;;;;;12587647;28;20536;-73
2022/01/08 02:32:35;;;;;;;6.15;5.15;;;;;;;;;;12587239;28;20029;-73
2022/01/08 02:38:38;;;;;;;;;;;;;;;;;;12587357;28;20025;-74
2022/01/08 02:44:43;;;;;;;6.60;4.73;;;;;;;;;;12586904;28;19927;-73
2022/01/08 02:50:46;;;;;;;5.47;4.85;;;;;;;;;;12584993;28;20271;-73
2022/01/08 02:59:50;;;;;;;7.50;6.00;;;;;;;;;;12587499;28;20560;-74
2022/01/08 03:05:52;;;;;;;8.75;7.15;;;;;;;;;;12587077;28;20401;-74
2022/01/08 03:11:53;;;;;;;5.70;5.05;;;;;;;;;;12587067;28;20056;-74
2022/01/08 03:17:55;;;;;;;7.45;6.18;;;;;;;;;;12585342;28;20043;-73
2022/01/08 03:24:01;;;;;;;9.33;6.83;;;;;;;;;;12585919;28;20512;-73
2022/01/08 03:30:06;;;;;;;8.48;6.65;;;;;;;;;;12585264;28;20633;-73
2022/01/08 03:36:09;;;;;;;6.10;5.03;;;;;;;;;;12583988;28;20039;-73
2022/01/08 03:42:11;;;;;;;9.23;6.67;;;;;;;;;;12583807;28;20032;-74
2022/01/08 04:00:00;;;;;;;8.77;6.60;;;;;;;;;;12587482;28;20556;-72
2022/01/08 04:06:02;;;;;;;3.85;3.55;;;;;;;;;;12586955;28;20032;-72
2022/01/08 04:12:06;;;;;;;8.82;7.25;;;;;;;;;;12586857;28;20146;-72
2022/01/08 04:18:08;;;;;;;6.45;5.57;;;;;;;;;;12586247;28;20040;-73
2022/01/08 04:24:10;;;;;;;8.43;6.80;;;;;;;;;;12584832;28;20044;-73
2022/01/08 04:30:12;;;;;;;9.83;6.50;;;;;;;;;;12585931;28;20044;-73
2022/01/08 04:36:14;;;;;;;8.48;6.65;;;;;;;;;;12568000;28;20036;-73
2022/01/08 04:42:15;;;;;;;6.45;4.90;;;;;;;;;;12583930;28;20039;-72
2022/01/08 04:48:17;;;;;;;8.15;6.40;;;;;;;;;;12585027;28;20498;-73
2022/01/08 04:54:19;;;;;;;9.77;7.93;;;;;;;;;;12584254;28;20057;-73
2022/01/08 13:26:16;;;;;;;10.05;9.15;;;;;;;;;;12586464;28;20490;-73
2022/01/08 13:32:19;;;;;;;7.65;6.95;;;;;;;;;;12586770;28;20025;-74
2022/01/08 13:38:31;;;;;;;7.88;7.15;;;;;;;;;;12586186;28;20037;-73
2022/01/08 13:44:33;;;;;;;5.85;5.35;;;;;;;;;;12586427;28;20041;-73
2022/01/08 13:50:40;;;;;;;5.82;5.32;;;;;;;;;;12585797;28;20131;-73
2022/01/08 13:56:42;;;;;;;8.25;7.55;;;;;;;;;;12584438;28;20040;-73
2022/01/08 14:08:52;;;;;;;7.00;6.40;;;;;;;;;;12687778;27;20870;-73
2022/01/08 14:14:55;;;;;;;8.18;7.47;;;;;;;;;;12687540;28;20040;-73
2022/01/08 14:21:15;;;;;;;7.18;6.57;;;;;;;;;;12685649;28;20044;-73
2022/01/08 14:27:18;;;;;;;7.88;7.18;;;;;;;;;;12685201;28;20055;-72
2022/01/08 14:33:20;;;;;;;6.90;6.30;;;;;;;;;;12697480;27;20034;-72
2022/01/08 14:39:30;;;;;;;6.77;6.17;;;;;;;;;;12752449;27;20031;-73
2022/01/08 14:45:46;;;;;;;7.50;6.82;;;;;;;;;;12787958;27;20042;-73
2022/01/08 14:51:48;;;;;;;8.07;7.45;;;;;;;;;;12787643;27;20034;-74
2022/01/08 14:57:49;;;;;;;8.95;8.25;;;;;;;;;;12768781;27;20034;-74
2022/01/08 15:03:51;;;;;;;8.15;7.38;;;;;;;;;;12786838;27;20551;-73
2022/01/08 15:09:53;;;;;;;8.70;7.88;;;;;;;;;;12768151;27;20046;-74
2022/01/08 15:15:54;;;;;;;8.65;7.38;;;;;;;;;;12740315;27;20038;-74
2022/01/08 15:21:56;;;;;;;10.48;9.48;;;;;;;;;;12752096;27;20035;-73
2022/01/08 15:27:58;;;;;;;8.50;7.70;;;;;;;;;;12751505;27;20046;-73
2022/01/08 15:34:00;;;;;;;12.10;10.80;;;;;;;;;;12733806;27;20040;-73
2022/01/08 15:40:01;;;;;;;10.93;9.75;;;;;;;;;;12732952;27;20035;-73
2022/01/08 15:46:03;;;;;;;10.38;9.30;;;;;;;;;;12732460;27;20396;-73
2022/01/08 15:52:05;;;;;;;9.10;8.18;;;;;;;;;;12750850;27;20030;-73
2022/01/08 15:58:07;;;;;;;9.82;8.75;;;;;;;;;;12750082;27;20038;-73
2022/01/08 16:04:08;;;;;;;8.40;7.15;;;;;;;;;;12749531;27;20062;-73
2022/01/08 16:10:10;;;;;;;8.02;7.20;;;;;;;;;;12714339;27;20042;-73
2022/01/08 16:16:12;;;;;;;8.90;8.10;;;;;;;;;;12749818;27;20027;-73
2022/01/08 16:22:13;;;;;;;9.73;8.73;;;;;;;;;;12730694;27;20039;-73
2022/01/08 16:28:18;;;;;;;8.55;7.72;;;;;;;;;;12748545;27;20042;-73
2022/01/08 16:34:21;;;;;;;13.50;12.23;;;;;;;;;;12748802;27;20035;-73
2022/01/08 16:40:22;;;;;;;13.73;10.63;;;;;;;;;;12749394;27;20031;-73
2022/01/08 16:46:24;;;;;;;15.60;13.30;;;;;;;;;;12747823;27;20046;-72
2022/01/08 16:52:27;;;;;;;9.23;8.32;;;;;;;;;;12729372;27;20030;-73
2022/01/08 16:58:28;;;;;;;11.30;9.63;;;;;;;;;;12729073;27;20034;-73
2022/01/08 17:04:30;;;;;;;7.78;7.03;;;;;;;;;;12728261;27;20065;-73
2022/01/08 17:10:32;;;;;;;7.73;6.53;;;;;;;;;;12729367;27;20027;-73
2022/01/08 17:16:35;;;;;;;7.65;6.90;;;;;;;;;;12728150;27;20027;-73
2022/01/08 17:22:36;;;;;;;7.83;7.03;;;;;;;;;;12745847;27;20046;-73
2022/01/08 17:28:38;;;;;;;8.40;7.15;;;;;;;;;;12745856;27;20050;-72
2022/01/08 17:34:40;;;;;;;9.10;7.47;;;;;;;;;;12727759;27;20046;-73
2022/01/08 17:40:43;;;;;;;10.98;9.70;;;;;;;;;;12745160;27;20035;-73
2022/01/08 17:46:44;;;;;;;;;;;;;;;;;;12728522;27;20066;-73
2022/01/08 17:52:46;;;;;;;14.93;12.48;;;;;;;;;;12745301;27;19914;-75
2022/01/08 17:58:48;;;;;;;16.63;14.95;;;;;;;;;;12744856;27;20062;-73
2022/01/08 18:04:50;;;;;;;15.38;12.98;;;;;;;;;;12726813;28;20051;-73
2022/01/08 18:10:51;;;;;;;11.35;10.23;;;;;;;;;;12726307;28;20034;-73
2022/01/08 18:16:53;;;;;;;10.70;8.52;;;;;;;;;;12744389;28;20035;-73
2022/01/08 18:22:55;;;;;;;9.15;8.32;;;;;;;;;;12744289;28;20035;-73
2022/01/08 18:28:57;;;;;;;11.67;9.23;;;;;;;;;;12725723;28;20047;-74
2022/01/08 18:34:59;;;;;;;8.93;8.00;;;;;;;;;;12744900;28;20028;-73
2022/01/08 18:41:00;;;;;;;7.90;7.05;;;;;;;;;;12725676;28;20039;-74
2022/01/08 18:47:02;;;;;;;8.13;7.33;;;;;;;;;;12725279;28;20511;-74
2022/01/08 18:53:04;;;;;;;7.60;6.82;;;;;;;;;;12731211;27;20031;-74
2022/01/08 18:59:06;;;;;;;14.80;12.43;;;;;;;;;;12734860;27;20034;-73
2022/01/08 19:05:09;;;;;;;12.38;11.10;;;;;;;;;;12752100;27;20062;-73
2022/01/08 19:11:11;;;;;;;12.40;10.48;;;;;;;;;;12751955;27;20034;-73
2022/01/08 19:18:06;;;;;;;13.77;10.52;;;;;;;;;;12585706;28;20497;-72
2022/01/08 19:24:08;;;;;;;13.40;10.65;;;;;;;;;;12584758;28;20036;-74
2022/01/08 19:30:10;;;;;;;15.32;13.00;;;;;;;;;;12586642;28;20402;-73
2022/01/08 19:36:12;;;;;;;15.13;11.83;;;;;;;;;;12584673;28;20083;-73
2022/01/08 19:42:14;;;;;;;6.85;6.18;;;;;;;;;;12586455;28;20049;-73
2022/01/08 19:48:16;;;;;;;16.73;12.00;;;;;;;;;;12585614;28;20036;-73
2022/01/08 19:54:17;;;;;;;15.52;13.07;;;;;;;;;;12567491;28;20051;-73
2022/01/08 20:00:19;;;;;;;15.80;11.88;;;;;;;;;;12584960;28;20060;-73
2022/01/08 20:06:23;;;;;;;20.73;15.18;;;;;;;;;;12566882;28;20503;-73
2022/01/08 20:12:25;;;;;;;17.00;13.52;;;;;;;;;;12582737;28;20139;-74
2022/01/08 20:18:27;;;;;;;20.48;15.38;;;;;;;;;;12582471;28;20047;-74
2022/01/08 20:24:30;;;;;;;18.48;14.18;;;;;;;;;;12577724;28;20029;-73
2022/01/08 20:30:31;;;;;;;15.73;12.15;;;;;;;;;;12549992;28;20041;-74
2022/01/08 20:36:33;;;;;;;14.90;11.63;;;;;;;;;;12550198;28;20045;-73
2022/01/08 20:42:35;;;;;;;13.32;11.65;;;;;;;;;;12549861;28;20037;-72
2022/01/08 20:48:37;;;;;;;16.50;13.48;;;;;;;;;;12548350;28;20037;-72
2022/01/08 20:54:39;;;;;;;21.80;15.48;;;;;;;;;;12547901;28;20037;-73
2022/01/08 21:00:40;;;;;;;13.05;10.43;;;;;;;;;;12547688;28;20036;-73
2022/01/08 21:06:43;;;;;;;19.25;14.63;;;;;;;;;;12549632;28;20044;-73
2022/01/08 21:12:45;;;;;;;17.92;13.57;;;;;;;;;;12547130;28;20052;-73
2022/01/08 21:18:46;;;;;;;21.15;16.92;;;;;;;;;;12547024;28;20033;-74
2022/01/08 21:24:48;;;;;;;17.92;12.43;;;;;;;;;;12547096;28;20387;-72
2022/01/08 21:30:50;;;;;;;23.98;18.45;;;;;;;;;;12546255;28;20096;-73
2022/01/08 21:37:11;;;;;;;20.88;15.32;;;;;;;;;;12546623;28;20047;-74
2022/01/08 21:43:13;;;;;;;22.27;16.48;;;;;;;;;;12529739;28;20467;-73
2022/01/08 21:49:15;;;;;;;17.58;14.05;;;;;;;;;;12545711;28;20474;-74
2022/01/08 21:55:17;;;;;;;16.17;12.45;;;;;;;;;;12545329;28;20044;-73
2022/01/08 22:01:19;;;;;;;20.23;15.45;;;;;;;;;;12545258;28;20036;-73
2022/01/08 22:07:28;;;;;;;21.90;16.65;;;;;;;;;;12546280;28;20040;-73
2022/01/08 22:13:30;;;;;;;12.60;9.73;;;;;;;;;;12544435;28;20053;-74
2022/01/08 22:19:31;;;;;;;24.25;18.92;;;;;;;;;;12544422;28;20047;-74
2022/01/08 22:25:33;;;;;;;21.70;16.75;;;;;;;;;;12545808;28;20112;-74
2022/01/08 22:31:35;;;;;;;24.85;18.50;;;;;;;;;;12527458;28;20051;-74
2022/01/08 22:37:40;;;;;;;21.05;15.73;;;;;;;;;;12543490;28;20052;-74
2022/01/08 22:43:41;;;;;;;27.23;19.60;;;;;;;;;;12527133;28;20376;-74
2022/01/08 22:49:43;;;;;;;18.48;15.35;;;;;;;;;;12543868;28;20555;-73
2022/01/08 22:55:45;;;;;;;40.50;30.55;;;;;;;;;;12544083;28;20044;-74
2022/01/08 23:01:46;;;;;;;21.67;18.45;;;;;;;;;;12526085;28;20028;-73
2022/01/08 23:07:49;;;;;;;26.88;21.40;;;;;;;;;;12544095;28;20067;-73
2022/01/08 23:13:50;;;;;;;24.60;18.85;;;;;;;;;;12542390;28;20350;-73
2022/01/08 23:19:52;;;;;;;37.60;27.50;;;;;;;;;;12543515;28;20029;-73
2022/01/08 23:25:54;;;;;;;37.92;27.48;;;;;;;;;;12542288;28;20036;-74
2022/01/08 23:31:56;;;;;;;29.27;22.02;;;;;;;;;;12543590;28;20260;-74
2022/01/08 23:37:57;;;;;;;36.03;23.83;;;;;;;;;;12541875;28;20502;-74
2022/01/08 23:43:59;;;;;;;31.48;24.50;;;;;;;;;;12543680;28;20394;-74
2022/01/08 23:50:04;;;;;;;31.75;22.63;;;;;;;;;;12541757;28;20040;-74
2022/01/08 23:56:06;;;;;;;23.60;19.00;;;;;;;;;;12542253;28;20119;-74
